• Join FlightAware (Why Join?)
  • Login
  • US Flag 
04:11PM EDT


 

Airport Tracker/Info


-or-


 

Live Flight TrackerFlight Track Log ✈ FLG4262 ✈ 13-Nov-2013 ✈ KDTW - KBGM

Flight Track Log - Related Links

Times and Time Zones

All times are in EST time to prevent confusion due to time zone crossing. See the FLG4262 flight status page for this flight to view local times or setup timezone preferences in your user account.

Time Position Orientation Groundspeed Altitude Reporting Facility
EST Latitude Longitude Course Direction KTS MPH feet Rate Location/Type
03:52PM 42.2094 -83.3506 174° South 137 158 1,300  Level Cleveland Center
03:53PM 42.1658 -83.3444 174° South 196 226 3,500 2,160 Climbing Cleveland Center
03:54PM 42.1247 -83.3303 166° South 206 237 4,900 2,160 Climbing Cleveland Center
03:55PM 42.0786 -83.2361 123° Southeast 285 328 7,400 2,340 Climbing Cleveland Center
03:56PM 42.0936 -83.1353 79° East 300 345 9,800 1,860 Climbing Cleveland Center
03:57PM 42.1358 -83.0306 61° Northeast 326 375 11,300 1,440 Climbing Cleveland Center
03:58PM 42.1853 -82.9106 61° Northeast 363 418 12,900 1,740 Climbing Cleveland Center
03:59PM 42.2458 -82.7586 62° Northeast 384 442 15,000 1,800 Climbing Cleveland Center
04:00PM 42.2978 -82.6286 62° Northeast 393 452 16,700 1,380 Climbing Cleveland Center
04:01PM 42.3500 -82.4981 62° Northeast 397 457 17,900 1,200 Climbing Cleveland Center
04:02PM 42.3633 -82.3478 83° East 416 479 19,200 1,200 Climbing Cleveland Center
04:03PM 42.3567 -82.1889 93° East 424 488 20,500 1,200 Climbing Cleveland Center
04:04PM 42.3494 -82.0042 93° East 425 489 21,700 1,020 Climbing Cleveland Center
04:05PM 42.3414 -81.8408 94° East 429 494 22,700 900 Climbing Cleveland Center
04:06PM 42.3353 -81.6753 93° East 432 497 23,600 780 Climbing Cleveland Center
04:07PM 42.3272 -81.5086 94° East 439 505 24,400 720 Climbing Cleveland Center
04:08PM 42.3189 -81.3386 94° East 445 512 25,200 660 Climbing Cleveland Center
04:09PM 42.3100 -81.1681 94° East 450 518 25,800 600 Climbing Cleveland Center
04:10PM 42.3006 -80.9681 94° East 453 521 26,500 600 Climbing Cleveland Center
04:11PM 42.2942 -80.7942 93° East 457 526 27,100 540 Climbing Cleveland Center
04:12PM 42.2958 -80.6261 89° East 446 513 27,700 540 Climbing Cleveland Center
04:13PM 42.2964 -80.4561 90° East 448 516 28,300 600 Climbing Cleveland Center
04:14PM 42.2964 -80.2856 90° East 449 517 29,000 300 Climbing Cleveland Center
04:15PM 42.2956 -80.1158 90° East 449 517 29,000  Level Cleveland Center
04:16PM 42.2950 -79.9461 90° East 460 529 29,000  Level Cleveland Center
04:17PM 42.2942 -79.7367 90° East 467 537 29,000  Level Cleveland Center
04:18PM 42.2931 -79.5608 90° East 471 542 29,000  Level Cleveland Center
04:19PM 42.2919 -79.3911 90° East 457 526 29,000 -480 Level Cleveland Center
04:20PM 42.2889 -79.2211 91° East 456 525 28,100 -480 Descending Cleveland Center
04:21PM 42.2872 -79.0458 91° East 463 533 28,000 -60 Descending Cleveland Center
04:23PM 42.2850 -78.8653 91° East 462 532 28,000 -240 Level Cleveland Center
04:24PM 42.2825 -78.6928 91° East 461 531 27,600 -1,080 Descending Cleveland Center
04:25PM 42.2789 -78.4886 91° East 457 526 25,800 -1,620 Descending Cleveland Center
04:26PM 42.2764 -78.3203 91° East 454 522 24,300 -1,500 Descending Cleveland Center
04:27PM 42.2725 -78.1539 92° East 448 516 22,800 -1,500 Descending Cleveland Center
04:28PM 42.2692 -77.9894 92° East 444 511 21,300 -1,500 Descending Cleveland Center
04:29PM 42.2658 -77.8261 92° East 442 509 19,800 -1,620 Descending Cleveland Center
04:30PM 42.2608 -77.6353 92° East 432 497 18,000 -1,500 Descending Cleveland Center
04:31PM 42.2567 -77.4767 92° East 429 494 16,800 -1,320 Descending Cleveland Center
04:32PM 42.2528 -77.3231 92° East 421 484 15,300 -900 Descending Cleveland Center
04:33PM 42.2492 -77.1806 92° East 396 456 15,000 -180 Descending Cleveland Center
04:34PM 42.2436 -77.0286 93° East 398 458 15,000  Level New York Center
04:35PM 42.2408 -76.8853 91° East 387 445 15,000 -720 Level New York Center
04:36PM 42.2344 -76.7247 93° East 370 426 13,500 -1,260 Descending Cleveland Center
04:37PM 42.2314 -76.6081 92° East 320 368 12,300 -1,380 Descending Cleveland Center
04:38PM 42.2161 -76.4914 100° East 314 361 10,700 -1,620 Descending Cleveland Center
04:39PM 42.1942 -76.3706 104° East 320 368 9,000 -1,740 Descending Cleveland Center
04:40PM 42.1750 -76.2719 105° East 313 360 7,600 -1,620 Descending New York Center
04:41PM 42.1461 -76.1744 112° Southeast 300 345 6,200 -1,200 Descending New York Center
04:42PM 42.1206 -76.0914 113° Southeast 266 306 5,200 -1,020 Descending New York Center
04:43PM 42.1133 -76.0181 98° East 228 262 4,200 -960 Descending New York Center
04:44PM 42.1306 -75.9581 69° East 187 215 3,300 -900 Descending New York Center
04:45PM 42.1667 -75.9467 13° North 126 145 2,400 -600 Descending New York Center
04:46PM 42.1933 -75.9544 348° North 106 122 2,100 -300 Descending New York Center